KDVT/DVT METAR and TAF weather

Enter ICAO airport designator
Station Type Date Time Source
KDVT METAR 2018/10/16 13:53 UTC NOAA

KDVT 161353Z 04006KT 10SM OVC090 14/06 A3001 RMK AO2 SLP149 T01440056


Station Type Date Time Source
KDVT Decoded METAR 2018/10/16 13:53 UTC NOAA

PHOENIX-DEER VALLEY MUN, AZ, United States (KDVT) 33-41N 112-04W 443M
Oct 16, 2018 - 09:53 AM EDT / 2018.10.16 1353 UTC
Wind: from the NE (040 degrees) at 7 MPH (6 KT):0
Visibility: 10 mile(s):0
Sky conditions: overcast
Temperature: 57.9 F (14.4 C)
Dew Point: 42.1 F (5.6 C)
Relative Humidity: 55%
Pressure (altimeter): 30.01 in. Hg (1016 hPa)
ob: KDVT 161353Z 04006KT 10SM OVC090 14/06 A3001 RMK AO2 SLP149 T01440056
cycle: 14

Station Type Date Time Source
KDVT TAF UTC NOAA

Error!


Example: see airport list